createdAt,value
2018-02-09T00:00:37.064Z,93.50
2018-02-09T00:03:03.349Z,97.62
2018-02-09T00:05:29.662Z,95.53
2018-02-09T00:07:56.683Z,100.43
2018-02-09T00:10:23.803Z,99.87
2018-02-09T00:12:50.082Z,96.40
2018-02-09T00:15:17.131Z,96.63
2018-02-09T00:17:44.191Z,95.72
2018-02-09T00:20:10.487Z,95.03
2018-02-09T00:22:52.618Z,85.38
2018-02-09T00:25:18.903Z,100.62
2018-02-09T00:27:45.262Z,102.60
2018-02-09T00:30:12.302Z,91.82
2018-02-09T00:32:39.339Z,83.90
2018-02-09T00:35:07.114Z,102.95
2018-02-09T00:37:33.394Z,93.82
2018-02-09T00:39:59.682Z,83.40
2018-02-09T00:42:26.715Z,91.35
2018-02-09T00:44:54.086Z,96.18
2018-02-09T00:47:21.130Z,90.78
2018-02-09T00:49:48.205Z,93.65
2018-02-09T00:52:14.498Z,94.78
2018-02-09T00:54:40.802Z,95.28
2018-02-09T00:57:07.075Z,83.60
2018-02-09T00:59:34.150Z,93.03
2018-02-09T01:02:00.454Z,94.13
2018-02-09T01:04:26.762Z,90.45
2018-02-09T01:06:53.074Z,76.68
2018-02-09T01:09:19.343Z,95.90
2018-02-09T01:11:46.375Z,89.15
2018-02-09T01:14:12.682Z,91.78
2018-02-09T01:16:39.994Z,95.32
2018-02-09T01:19:06.302Z,96.45
2018-02-09T01:21:33.415Z,105.43
2018-02-09T01:23:59.739Z,85.90
2018-02-09T01:26:26.063Z,109.95
2018-02-09T01:28:52.374Z,99.68
2018-02-09T01:31:18.689Z,87.88
2018-02-09T01:33:45.741Z,100.72
2018-02-09T01:36:12.067Z,99.43
2018-02-09T01:38:39.386Z,87.68
2018-02-09T01:41:05.718Z,91.55
2018-02-09T01:43:32.022Z,102.05
2018-02-09T01:45:58.326Z,106.45
2018-02-09T01:48:24.646Z,86.15
2018-02-09T01:50:52.814Z,89.50
2018-02-09T01:53:19.884Z,89.93
2018-02-09T01:55:46.191Z,87.93
2018-02-09T01:58:13.210Z,83.72
2018-02-09T02:00:41.264Z,93.10
2018-02-09T02:03:07.582Z,95.07
2018-02-09T02:05:34.138Z,98.10
2018-02-09T02:08:01.466Z,102.53
2018-02-09T02:10:27.763Z,103.43
2018-02-09T02:12:54.827Z,97.47
2018-02-09T02:15:21.112Z,94.30
2018-02-09T02:17:47.386Z,85.60
2018-02-09T02:20:13.801Z,90.15
2018-02-09T02:22:40.810Z,98.22
2018-02-09T02:25:07.095Z,107.95
2018-02-09T02:27:33.429Z,105.65
2018-02-09T02:29:59.708Z,105.43
2018-02-09T02:32:26.040Z,99.60
2018-02-09T02:34:52.339Z,119.47
2018-02-09T02:37:19.651Z,99.82
2018-02-09T02:39:46.438Z,97.37
2018-02-09T02:42:12.739Z,88.55
2018-02-09T02:44:39.027Z,101.78
2018-02-09T02:47:05.326Z,89.53
2018-02-09T02:49:31.618Z,95.60
2018-02-09T02:51:57.906Z,86.72
2018-02-09T02:54:24.184Z,80.55
2018-02-09T02:56:50.463Z,83.05
2018-02-09T02:59:16.819Z,84.32
2018-02-09T03:01:43.881Z,93.82
2018-02-09T03:04:10.906Z,94.03
2018-02-09T03:06:37.230Z,96.20
2018-02-09T03:09:05.014Z,91.32
2018-02-09T03:11:32.087Z,84.45
2018-02-09T03:13:58.377Z,101.70
2018-02-09T03:16:24.691Z,92.12
2018-02-09T03:18:51.766Z,103.95
2018-02-09T03:21:18.797Z,94.72
2018-02-09T03:23:45.842Z,100.22
2018-02-09T03:26:12.155Z,102.43
2018-02-09T03:28:38.462Z,74.78
2018-02-09T03:31:04.745Z,92.22
2018-02-09T03:33:31.021Z,95.38
2018-02-09T03:35:57.335Z,80.22
2018-02-09T03:38:23.614Z,94.45
2018-02-09T03:40:49.953Z,90.40
2018-02-09T03:43:16.346Z,97.75
2018-02-09T03:45:42.609Z,89.22
2018-02-09T03:48:08.923Z,91.30
2018-02-09T03:50:35.233Z,93.78
2018-02-09T03:53:01.559Z,82.97
2018-02-09T03:55:27.843Z,91.65
2018-02-09T03:57:54.143Z,96.32
2018-02-09T04:00:20.431Z,93.55
2018-02-09T04:02:47.501Z,81.07
2018-02-09T04:05:13.791Z,82.45
2018-02-09T04:07:40.082Z,89.20
2018-02-09T04:10:06.355Z,87.70
2018-02-09T04:12:32.653Z,89.87
2018-02-09T04:14:58.951Z,83.72
2018-02-09T04:17:25.262Z,79.55
2018-02-09T04:19:52.269Z,78.40
2018-02-09T04:22:18.545Z,75.43
2018-02-09T04:24:44.850Z,84.57
2018-02-09T04:27:11.880Z,83.43
2018-02-09T04:29:38.150Z,76.53
2018-02-09T04:32:06.235Z,85.38
2018-02-09T04:34:32.575Z,89.72
2018-02-09T04:36:58.859Z,83.22
2018-02-09T04:39:25.158Z,84.62
2018-02-09T04:41:52.442Z,95.30
2018-02-09T04:44:18.743Z,93.82
2018-02-09T04:46:45.039Z,97.85
2018-02-09T04:49:11.340Z,82.00
2018-02-09T04:51:38.357Z,83.22
2018-02-09T04:54:04.656Z,81.55
2018-02-09T04:56:30.947Z,77.22
2018-02-09T04:58:58.002Z,82.95
2018-02-09T05:01:25.033Z,82.82
2018-02-09T05:03:51.327Z,93.93
2018-02-09T05:06:17.630Z,89.45
2018-02-09T05:08:44.655Z,88.37
2018-02-09T05:11:10.931Z,92.88
2018-02-09T05:13:38.270Z,94.22
2018-02-09T05:16:04.548Z,88.47
2018-02-09T05:18:30.834Z,89.82
2018-02-09T05:20:57.110Z,93.80
2018-02-09T05:23:24.434Z,87.78
2018-02-09T05:25:50.726Z,95.00
2018-02-09T05:28:17.787Z,90.50
2018-02-09T05:30:44.815Z,91.78
2018-02-09T05:33:11.846Z,91.03
2018-02-09T05:35:38.154Z,86.15
2018-02-09T05:38:04.450Z,84.18
2018-02-09T05:40:30.734Z,93.15
2018-02-09T05:42:57.039Z,78.72
2018-02-09T05:45:23.343Z,81.85
2018-02-09T05:47:49.650Z,84.25
2018-02-09T05:50:16.832Z,73.75
2018-02-09T05:52:43.102Z,74.82
2018-02-09T05:55:09.378Z,76.15
2018-02-09T05:57:35.666Z,88.82
2018-02-09T06:00:01.968Z,74.95
2018-02-09T06:02:28.243Z,74.45
2018-02-09T06:04:55.259Z,70.72
2018-02-09T06:07:21.538Z,83.87
2018-02-09T06:09:47.811Z,75.90
2018-02-09T06:12:14.107Z,82.75
2018-02-09T06:14:40.431Z,78.43
2018-02-09T06:17:06.725Z,77.20
2018-02-09T06:19:33.014Z,77.28
2018-02-09T06:21:59.314Z,74.80
2018-02-09T06:24:26.398Z,91.15
2018-02-09T06:26:52.662Z,75.53
2018-02-09T06:29:21.462Z,88.50
2018-02-09T06:31:48.478Z,85.50
2018-02-09T06:34:14.772Z,86.50
2018-02-09T06:36:41.055Z,83.93
2018-02-09T06:39:07.362Z,81.30
2018-02-09T06:41:33.639Z,94.22
2018-02-09T06:44:01.142Z,81.57
2018-02-09T06:46:27.431Z,83.70
2018-02-09T06:48:54.459Z,82.28
2018-02-09T06:51:20.737Z,86.07
2018-02-09T06:53:47.039Z,96.32
2018-02-09T06:56:14.066Z,84.57
2018-02-09T06:58:40.362Z,82.45
2018-02-09T07:01:06.646Z,86.28
2018-02-09T07:03:33.682Z,70.60
2018-02-09T07:06:00.711Z,87.18
2018-02-09T07:08:27.010Z,83.82
2018-02-09T07:10:53.278Z,88.15
2018-02-09T07:13:19.557Z,80.00
2018-02-09T07:15:45.822Z,75.00
2018-02-09T07:18:12.121Z,80.38
2018-02-09T07:20:38.445Z,74.87
2018-02-09T07:23:04.720Z,75.55
2018-02-09T07:25:31.026Z,70.20
2018-02-09T07:27:57.314Z,71.72
2018-02-09T07:30:24.348Z,85.68
2018-02-09T07:32:50.620Z,84.10
2018-02-09T07:35:16.957Z,67.75
2018-02-09T07:37:43.226Z,70.47
2018-02-09T07:40:09.527Z,70.72
2018-02-09T07:42:35.826Z,76.05
2018-02-09T07:45:02.138Z,72.60
2018-02-09T07:47:29.171Z,74.03
2018-02-09T07:49:55.482Z,78.43
2018-02-09T07:52:21.750Z,90.45
2018-02-09T07:54:48.059Z,75.37
2018-02-09T07:57:15.083Z,71.32
2018-02-09T07:59:41.410Z,76.15
2018-02-09T08:02:07.719Z,81.70
2018-02-09T08:04:34.022Z,69.62
2018-02-09T08:07:01.045Z,79.15
2018-02-09T08:09:28.093Z,69.05
2018-02-09T08:11:55.119Z,77.07
2018-02-09T08:14:21.494Z,73.12
2018-02-09T08:16:47.799Z,77.35
2018-02-09T08:19:14.106Z,69.22
2018-02-09T08:21:40.373Z,76.80
2018-02-09T08:24:07.411Z,86.53
2018-02-09T08:26:34.421Z,68.68
2018-02-09T08:29:00.715Z,82.50
2018-02-09T08:31:26.986Z,69.57
2018-02-09T08:33:53.273Z,68.43
2018-02-09T08:36:19.558Z,76.78
2018-02-09T08:38:45.847Z,74.40
2018-02-09T08:41:12.131Z,54.58
2018-02-09T08:43:39.158Z,50.70
2018-02-09T08:46:05.438Z,50.45
2018-02-09T08:48:31.726Z,45.83
2018-02-09T08:50:57.998Z,42.53
2018-02-09T08:53:25.327Z,47.33
2018-02-09T08:55:52.342Z,64.53
2018-02-09T08:58:18.619Z,59.47
2018-02-09T09:00:46.670Z,58.55
2018-02-09T09:03:13.692Z,59.22
2018-02-09T09:05:39.998Z,48.53
2018-02-09T09:08:06.284Z,47.97
2018-02-09T09:10:33.326Z,42.20
2018-02-09T09:13:00.422Z,39.90
2018-02-09T09:15:26.707Z,45.92
2018-02-09T09:17:53.730Z,39.60
2018-02-09T09:20:20.024Z,45.35
2018-02-09T09:22:46.294Z,38.83
2018-02-09T09:25:12.566Z,42.60
2018-02-09T09:27:38.878Z,35.17
2018-02-09T09:30:05.902Z,47.30
2018-02-09T09:32:32.174Z,42.90
2018-02-09T09:34:58.470Z,41.88
2018-02-09T09:37:24.751Z,39.00
2018-02-09T09:39:51.051Z,46.13
2018-02-09T09:42:19.125Z,41.15
2018-02-09T09:44:46.162Z,38.08
2018-02-09T09:47:13.188Z,40.30
2018-02-09T09:49:40.226Z,40.55
2018-02-09T09:52:06.502Z,40.55
2018-02-09T09:54:32.796Z,43.28
2018-02-09T09:57:00.879Z,44.50
2018-02-09T09:59:27.152Z,47.60
2018-02-09T10:01:53.442Z,44.03
2018-02-09T10:04:20.461Z,45.55
2018-02-09T10:06:46.738Z,43.33
2018-02-09T10:09:13.010Z,42.38
2018-02-09T10:11:39.303Z,42.47
2018-02-09T10:14:05.590Z,46.63
2018-02-09T10:16:32.530Z,41.50
2018-02-09T10:18:58.810Z,43.50
2018-02-09T10:21:25.098Z,41.88
2018-02-09T10:23:51.390Z,41.33
2018-02-09T10:26:17.700Z,58.38
2018-02-09T10:28:43.979Z,44.15
2018-02-09T10:31:10.306Z,46.60
2018-02-09T10:33:36.585Z,42.00
2018-02-09T10:36:02.916Z,48.33
2018-02-09T10:38:29.306Z,61.67
2018-02-09T10:40:55.607Z,44.63
2018-02-09T10:43:21.886Z,43.20
2018-02-09T10:45:48.977Z,41.83
2018-02-09T10:48:15.260Z,41.47
2018-02-09T10:50:42.375Z,39.95
2018-02-09T10:53:09.670Z,46.37
2018-02-09T10:55:36.742Z,38.88
2018-02-09T10:58:03.032Z,38.58
2018-02-09T11:00:37.203Z,45.75
2018-02-09T11:03:03.482Z,41.05
2018-02-09T11:05:31.106Z,41.90
2018-02-09T11:07:57.371Z,41.40
2018-02-09T11:10:29.718Z,41.33
2018-02-09T11:12:56.037Z,41.05
2018-02-09T11:15:22.338Z,46.88
2018-02-09T11:17:48.612Z,51.03
2018-02-09T11:20:14.882Z,36.13
2018-02-09T11:22:41.178Z,36.63
2018-02-09T11:25:08.546Z,54.60
2018-02-09T11:27:34.824Z,38.50
2018-02-09T11:30:01.155Z,41.05
2018-02-09T11:32:27.452Z,46.15
2018-02-09T11:34:54.473Z,42.67
2018-02-09T11:37:21.535Z,50.67
2018-02-09T11:39:48.579Z,47.85
2018-02-09T11:42:14.858Z,48.90
2018-02-09T11:44:41.151Z,43.33
2018-02-09T11:47:08.162Z,44.92
2018-02-09T11:49:34.450Z,44.08
2018-02-09T11:52:00.766Z,40.58
2018-02-09T11:54:27.851Z,45.95
2018-02-09T11:56:54.150Z,48.60
2018-02-09T11:59:21.454Z,53.45
2018-02-09T12:01:47.731Z,43.42
2018-02-09T12:04:14.778Z,46.25
2018-02-09T12:06:42.830Z,46.50
2018-02-09T12:09:09.134Z,43.30
2018-02-09T12:11:35.438Z,44.22
2018-02-09T12:14:01.719Z,42.42
2018-02-09T12:16:28.822Z,46.30
2018-02-09T12:18:55.118Z,44.72
2018-02-09T12:21:22.163Z,44.90
2018-02-09T12:23:49.186Z,47.05
2018-02-09T12:26:15.467Z,46.25
2018-02-09T12:28:41.758Z,49.05
2018-02-09T12:31:08.770Z,50.83
2018-02-09T12:33:35.074Z,44.10
2018-02-09T12:36:01.366Z,43.70
2018-02-09T12:38:28.396Z,44.20
2018-02-09T12:40:54.680Z,51.42
2018-02-09T12:43:21.000Z,42.50
2018-02-09T12:45:48.019Z,46.03
2018-02-09T12:48:15.034Z,46.58
2018-02-09T12:50:41.317Z,45.40
2018-02-09T12:53:07.623Z,47.75
2018-02-09T12:55:34.645Z,50.53
2018-02-09T12:58:00.956Z,49.90
2018-02-09T13:00:27.242Z,50.92
2018-02-09T13:02:54.281Z,43.28
2018-02-09T13:05:21.294Z,52.38
2018-02-09T13:07:47.607Z,55.63
2018-02-09T13:10:13.898Z,69.45
2018-02-09T13:12:53.407Z,51.58
2018-02-09T13:15:19.691Z,61.33
2018-02-09T13:17:45.999Z,60.63
2018-02-09T13:20:14.063Z,47.85
2018-02-09T13:22:53.429Z,51.42
2018-02-09T13:25:19.718Z,52.35
2018-02-09T13:27:46.004Z,51.45
2018-02-09T13:30:12.299Z,54.05
2018-02-09T13:35:33.715Z,49.33
2018-02-09T13:37:59.990Z,56.08
2018-02-09T13:40:27.307Z,49.97
2018-02-09T13:42:54.345Z,54.53
2018-02-09T13:45:22.399Z,57.62
2018-02-09T13:47:48.690Z,51.72
2018-02-09T13:50:14.966Z,47.03
2018-02-09T13:52:41.238Z,52.55
2018-02-09T13:55:07.576Z,51.42
2018-02-09T13:57:33.863Z,57.72
2018-02-09T14:00:00.146Z,47.10
2018-02-09T14:02:26.462Z,44.20
2018-02-09T14:04:52.740Z,78.78
2018-02-09T14:07:19.038Z,49.08
2018-02-09T14:09:45.371Z,50.85
2018-02-09T14:12:11.654Z,53.63
2018-02-09T14:14:38.668Z,50.15
2018-02-09T14:17:04.959Z,59.30
2018-02-09T14:19:31.260Z,51.85
2018-02-09T14:21:58.273Z,58.17
2018-02-09T14:24:25.074Z,53.63
2018-02-09T14:26:51.364Z,47.13
2018-02-09T14:29:18.407Z,51.50
2018-02-09T14:31:44.703Z,58.20
2018-02-09T14:34:11.002Z,57.88
2018-02-09T14:36:37.270Z,50.67
2018-02-09T14:39:04.584Z,54.58
2018-02-09T14:41:30.882Z,57.92
2018-02-09T14:43:57.174Z,55.53
2018-02-09T14:46:23.467Z,52.92
2018-02-09T14:48:50.527Z,59.58
2018-02-09T14:51:17.108Z,57.47
2018-02-09T14:53:43.402Z,52.15
2018-02-09T14:56:09.682Z,63.85
2018-02-09T14:58:35.985Z,62.83
2018-02-09T15:01:02.279Z,66.75
2018-02-09T15:03:28.575Z,64.32
2018-02-09T15:05:54.859Z,59.72
2018-02-09T15:08:21.178Z,58.92
2018-02-09T15:10:47.446Z,60.83
2018-02-09T15:13:13.774Z,61.88
2018-02-09T15:15:40.054Z,58.87
2018-02-09T15:18:06.370Z,55.95
2018-02-09T15:20:33.409Z,55.10
2018-02-09T15:22:59.707Z,67.03
2018-02-09T15:25:25.989Z,58.63
2018-02-09T15:27:53.036Z,59.00
2018-02-09T15:30:20.055Z,65.97
2018-02-09T15:32:46.361Z,65.37
2018-02-09T15:35:12.655Z,63.20
2018-02-09T15:37:38.951Z,62.10
2018-02-09T15:40:05.254Z,73.18
2018-02-09T15:42:32.567Z,63.30
2018-02-09T15:44:58.858Z,69.70
2018-02-09T15:47:25.146Z,69.37
2018-02-09T15:49:51.434Z,61.33
2018-02-09T15:52:18.492Z,68.97
2018-02-09T15:54:45.521Z,67.50
2018-02-09T15:57:13.159Z,61.70
2018-02-09T15:59:39.442Z,78.57
2018-02-09T16:02:05.724Z,120.93
2018-02-09T16:04:32.005Z,80.85
2018-02-09T16:06:58.338Z,87.20
2018-02-09T16:09:24.674Z,73.72
2018-02-09T16:11:50.942Z,77.78
2018-02-09T16:14:18.275Z,83.53
2018-02-09T16:16:44.555Z,66.40
2018-02-09T16:19:11.593Z,63.25
2018-02-09T16:21:37.883Z,65.78
2018-02-09T16:24:04.226Z,72.43
2018-02-09T16:26:30.534Z,69.18
2018-02-09T16:28:56.870Z,63.83
2018-02-09T16:31:23.150Z,70.60
2018-02-09T16:33:49.471Z,69.85
2018-02-09T16:36:15.746Z,69.47
2018-02-09T16:38:43.046Z,68.40
2018-02-09T16:41:09.375Z,67.35
2018-02-09T16:43:35.687Z,65.72
2018-02-09T16:46:02.010Z,102.07
2018-02-09T16:48:28.312Z,91.82
2018-02-09T16:50:54.611Z,71.97
2018-02-09T16:53:21.931Z,78.62
2018-02-09T16:55:49.271Z,64.72
2018-02-09T16:58:15.594Z,58.85
2018-02-09T17:00:41.866Z,74.93
2018-02-09T17:03:08.163Z,78.85
2018-02-09T17:05:34.438Z,69.95
2018-02-09T17:08:00.754Z,74.87
2018-02-09T17:10:27.051Z,71.82
2018-02-09T17:12:53.314Z,65.00
2018-02-09T17:15:19.578Z,67.35
2018-02-09T17:17:46.597Z,74.65
2018-02-09T17:20:13.899Z,81.40
2018-02-09T17:22:40.195Z,76.68
2018-02-09T17:25:07.230Z,70.30
2018-02-09T17:27:33.514Z,64.43
2018-02-09T17:29:59.811Z,73.75
2018-02-09T17:32:26.102Z,71.35
2018-02-09T17:34:52.406Z,75.57
2018-02-09T17:37:18.682Z,73.18
2018-02-09T17:39:44.977Z,71.28
2018-02-09T17:42:11.259Z,72.80
2018-02-09T17:44:39.374Z,77.22
2018-02-09T17:47:05.666Z,69.45
2018-02-09T17:49:32.734Z,70.60
2018-02-09T17:51:59.741Z,76.53
2018-02-09T17:54:26.235Z,80.93
2018-02-09T17:56:52.508Z,73.30
2018-02-09T17:59:18.799Z,68.20
2018-02-09T18:01:45.115Z,78.82
2018-02-09T18:04:11.415Z,64.12
2018-02-09T18:06:38.451Z,64.37
2018-02-09T18:09:05.479Z,68.10
2018-02-09T18:11:31.770Z,66.55
2018-02-09T18:13:58.050Z,65.35
2018-02-09T18:16:24.377Z,75.95
2018-02-09T18:18:50.682Z,77.25
2018-02-09T18:21:16.994Z,69.50
2018-02-09T18:23:44.314Z,64.18
2018-02-09T18:26:10.626Z,75.43
2018-02-09T18:28:36.987Z,63.63
2018-02-09T18:31:03.271Z,71.60
2018-02-09T18:33:29.588Z,69.72
2018-02-09T18:35:55.889Z,64.22
2018-02-09T18:38:23.232Z,64.05
2018-02-09T18:40:49.511Z,65.32
2018-02-09T18:43:15.794Z,76.50
2018-02-09T18:45:42.094Z,62.78
2018-02-09T18:48:08.378Z,70.03
2018-02-09T18:50:34.678Z,66.43
2018-02-09T18:53:01.004Z,74.87
2018-02-09T18:55:27.306Z,69.10
2018-02-09T18:57:53.583Z,63.25
2018-02-09T19:00:19.860Z,67.10
2018-02-09T19:02:46.198Z,93.00
2018-02-09T19:05:12.489Z,67.20
2018-02-09T19:07:38.766Z,83.28
2018-02-09T19:10:05.824Z,104.97
2018-02-09T19:12:32.875Z,104.90
2018-02-09T19:14:59.897Z,113.90
2018-02-09T19:17:27.210Z,131.80
2018-02-09T19:19:53.490Z,81.65
2018-02-09T19:22:19.788Z,84.85
2018-02-09T19:24:46.095Z,63.08
2018-02-09T19:27:12.406Z,92.10
2018-02-09T19:29:38.682Z,73.93
2018-02-09T19:32:04.975Z,69.87
2018-02-09T19:34:31.246Z,71.10
2018-02-09T19:36:57.531Z,70.18
2018-02-09T19:39:24.372Z,78.53
2018-02-09T19:41:50.673Z,68.35
2018-02-09T19:44:17.004Z,75.47
2018-02-09T19:46:44.059Z,72.78
2018-02-09T19:49:12.171Z,70.68
2018-02-09T19:51:39.526Z,62.83
2018-02-09T19:54:05.811Z,63.83
2018-02-09T19:56:32.872Z,63.78
2018-02-09T19:58:59.902Z,69.25
2018-02-09T20:01:26.190Z,78.30
2018-02-09T20:03:52.510Z,68.40
2018-02-09T20:06:18.810Z,72.00
2018-02-09T20:08:45.827Z,75.47
2018-02-09T20:11:12.128Z,73.53
2018-02-09T20:13:38.423Z,69.50
2018-02-09T20:16:05.474Z,72.12
2018-02-09T20:18:31.751Z,66.75
2018-02-09T20:20:58.034Z,64.62
2018-02-09T20:23:24.330Z,62.45
2018-02-09T20:25:50.625Z,66.05
2018-02-09T20:28:17.087Z,67.37
2018-02-09T20:30:43.389Z,65.87
2018-02-09T20:33:09.682Z,66.43
2018-02-09T20:35:35.982Z,68.65
2018-02-09T20:38:03.021Z,63.13
2018-02-09T20:40:30.059Z,62.17
2018-02-09T20:42:57.084Z,65.87
2018-02-09T20:45:23.447Z,64.65
2018-02-09T20:47:50.467Z,76.00
2018-02-09T20:50:16.766Z,66.97
2018-02-09T20:52:43.049Z,68.62
2018-02-09T20:55:10.138Z,62.55
2018-02-09T20:57:36.430Z,75.37
2018-02-09T21:00:02.743Z,62.78
2018-02-09T21:02:29.007Z,74.30
2018-02-09T21:04:56.030Z,76.00
2018-02-09T21:07:22.318Z,65.80
2018-02-09T21:09:48.590Z,67.65
2018-02-09T21:12:14.862Z,71.18
2018-02-09T21:14:41.137Z,76.62
2018-02-09T21:17:07.441Z,61.05
2018-02-09T21:19:33.737Z,71.70
2018-02-09T21:22:00.764Z,70.78
2018-02-09T21:24:27.043Z,62.30
2018-02-09T21:26:54.414Z,68.40
2018-02-09T21:29:20.687Z,70.50
2018-02-09T21:31:47.730Z,63.20
2018-02-09T21:34:14.009Z,61.00
2018-02-09T21:36:40.306Z,66.72
2018-02-09T21:39:08.349Z,60.80
2018-02-09T21:41:34.638Z,59.92
2018-02-09T21:44:01.683Z,61.45
2018-02-09T21:46:28.000Z,63.42
2018-02-09T21:48:55.019Z,57.92
2018-02-09T21:51:21.354Z,67.95
2018-02-09T21:53:47.644Z,57.22
2018-02-09T21:56:13.946Z,62.30
2018-02-09T21:58:40.233Z,59.88
2018-02-09T22:01:06.553Z,66.28
2018-02-09T22:03:32.828Z,64.65
2018-02-09T22:05:59.870Z,69.60
2018-02-09T22:08:26.883Z,71.12
2018-02-09T22:10:53.183Z,69.70
2018-02-09T22:13:19.467Z,59.17
2018-02-09T22:15:46.498Z,65.55
2018-02-09T22:18:12.773Z,61.78
2018-02-09T22:20:39.126Z,64.22
2018-02-09T22:23:05.418Z,55.85
2018-02-09T22:25:32.458Z,64.25
2018-02-09T22:27:59.478Z,72.97
2018-02-09T22:30:25.774Z,65.07
2018-02-09T22:32:52.049Z,63.30
2018-02-09T22:35:18.366Z,65.12
2018-02-09T22:37:44.648Z,62.75
2018-02-09T22:40:10.919Z,74.05
2018-02-09T22:42:37.223Z,71.70
2018-02-09T22:45:03.511Z,67.35
2018-02-09T22:47:30.531Z,76.53
2018-02-09T22:49:56.826Z,66.03
2018-02-09T22:52:23.132Z,75.25
2018-02-09T22:54:49.426Z,66.30
2018-02-09T22:57:15.727Z,65.10
2018-02-09T22:59:41.998Z,63.87
2018-02-09T23:02:08.282Z,73.95
2018-02-09T23:04:35.318Z,71.57
2018-02-09T23:07:01.594Z,72.12
2018-02-09T23:09:27.870Z,78.10
2018-02-09T23:11:54.171Z,77.32
2018-02-09T23:14:21.277Z,89.78
2018-02-09T23:16:47.591Z,78.85
2018-02-09T23:19:13.862Z,72.07
2018-02-09T23:21:40.151Z,78.35
2018-02-09T23:24:06.514Z,72.50
2018-02-09T23:26:32.818Z,76.12
2018-02-09T23:28:59.114Z,71.78
2018-02-09T23:31:26.126Z,70.10
2018-02-09T23:33:52.426Z,72.78
2018-02-09T23:36:18.701Z,62.75
2018-02-09T23:38:44.998Z,72.85
2018-02-09T23:41:11.286Z,66.50
2018-02-09T23:43:37.606Z,81.18
2018-02-09T23:46:04.624Z,70.28
2018-02-09T23:48:30.926Z,67.35
2018-02-09T23:50:57.207Z,75.03
2018-02-09T23:53:24.235Z,76.65
2018-02-09T23:55:51.583Z,77.07
2018-02-09T23:58:17.858Z,72.30
